sensor_id;sensor_type;location;lat;lon;timestamp;P1;durP1;ratioP1;P2;durP2;ratioP2
69030;SDS011;56083;48.774;8.942;2022-07-23T00:01:36;7.70;;;4.68;;
69030;SDS011;56083;48.774;8.942;2022-07-23T00:04:01;10.40;;;4.13;;
69030;SDS011;56083;48.774;8.942;2022-07-23T00:06:27;8.00;;;4.50;;
69030;SDS011;56083;48.774;8.942;2022-07-23T00:08:53;8.55;;;4.15;;
69030;SDS011;56083;48.774;8.942;2022-07-23T00:11:19;5.80;;;4.25;;
69030;SDS011;56083;48.774;8.942;2022-07-23T00:13:44;5.60;;;4.05;;
69030;SDS011;56083;48.774;8.942;2022-07-23T00:16:10;6.05;;;4.03;;
69030;SDS011;56083;48.774;8.942;2022-07-23T00:18:36;5.30;;;3.70;;
69030;SDS011;56083;48.774;8.942;2022-07-23T00:21:02;8.10;;;4.25;;
69030;SDS011;56083;48.774;8.942;2022-07-23T00:23:28;8.15;;;3.70;;
69030;SDS011;56083;48.774;8.942;2022-07-23T00:25:54;7.30;;;3.70;;
69030;SDS011;56083;48.774;8.942;2022-07-23T00:28:20;5.97;;;3.75;;
69030;SDS011;56083;48.774;8.942;2022-07-23T00:30:46;5.22;;;3.63;;
69030;SDS011;56083;48.774;8.942;2022-07-23T00:33:12;6.25;;;4.00;;
69030;SDS011;56083;48.774;8.942;2022-07-23T00:35:38;6.43;;;3.83;;
69030;SDS011;56083;48.774;8.942;2022-07-23T00:38:06;5.50;;;3.92;;
69030;SDS011;56083;48.774;8.942;2022-07-23T00:40:34;6.68;;;4.15;;
69030;SDS011;56083;48.774;8.942;2022-07-23T00:43:01;6.32;;;3.85;;
69030;SDS011;56083;48.774;8.942;2022-07-23T00:45:29;6.28;;;4.05;;
69030;SDS011;56083;48.774;8.942;2022-07-23T00:47:55;7.13;;;3.97;;
69030;SDS011;56083;48.774;8.942;2022-07-23T00:50:22;5.45;;;4.28;;
69030;SDS011;56083;48.774;8.942;2022-07-23T00:52:48;7.25;;;3.88;;
69030;SDS011;56083;48.774;8.942;2022-07-23T00:55:14;6.85;;;4.07;;
69030;SDS011;56083;48.774;8.942;2022-07-23T00:57:40;12.38;;;4.22;;
69030;SDS011;56083;48.774;8.942;2022-07-23T01:00:08;6.13;;;4.53;;
69030;SDS011;56083;48.774;8.942;2022-07-23T01:02:36;8.73;;;4.28;;
69030;SDS011;56083;48.774;8.942;2022-07-23T01:05:03;6.18;;;4.50;;
69030;SDS011;56083;48.774;8.942;2022-07-23T01:07:29;10.95;;;4.47;;
69030;SDS011;56083;48.774;8.942;2022-07-23T01:09:55;7.57;;;4.18;;
69030;SDS011;56083;48.774;8.942;2022-07-23T01:12:21;6.82;;;4.18;;
69030;SDS011;56083;48.774;8.942;2022-07-23T01:14:53;7.80;;;4.30;;
69030;SDS011;56083;48.774;8.942;2022-07-23T01:17:23;7.35;;;3.92;;
69030;SDS011;56083;48.774;8.942;2022-07-23T01:19:49;6.93;;;4.10;;
69030;SDS011;56083;48.774;8.942;2022-07-23T01:22:15;7.97;;;4.30;;
69030;SDS011;56083;48.774;8.942;2022-07-23T01:24:43;9.55;;;4.35;;
69030;SDS011;56083;48.774;8.942;2022-07-23T01:27:09;7.03;;;3.70;;
69030;SDS011;56083;48.774;8.942;2022-07-23T01:29:35;5.78;;;4.00;;
69030;SDS011;56083;48.774;8.942;2022-07-23T01:32:00;6.85;;;4.60;;
69030;SDS011;56083;48.774;8.942;2022-07-23T01:34:26;5.63;;;3.85;;
69030;SDS011;56083;48.774;8.942;2022-07-23T01:36:52;7.03;;;4.43;;
69030;SDS011;56083;48.774;8.942;2022-07-23T01:39:17;9.00;;;4.13;;
69030;SDS011;56083;48.774;8.942;2022-07-23T01:41:43;7.00;;;4.40;;
69030;SDS011;56083;48.774;8.942;2022-07-23T01:44:09;8.95;;;3.90;;
69030;SDS011;56083;48.774;8.942;2022-07-23T01:46:34;6.43;;;3.90;;
69030;SDS011;56083;48.774;8.942;2022-07-23T01:49:00;6.05;;;4.00;;
69030;SDS011;56083;48.774;8.942;2022-07-23T01:51:26;8.30;;;4.10;;
69030;SDS011;56083;48.774;8.942;2022-07-23T01:53:51;6.90;;;4.47;;
69030;SDS011;56083;48.774;8.942;2022-07-23T01:56:17;6.13;;;4.05;;
69030;SDS011;56083;48.774;8.942;2022-07-23T01:58:45;6.93;;;4.28;;
69030;SDS011;56083;48.774;8.942;2022-07-23T02:01:12;6.82;;;3.95;;
69030;SDS011;56083;48.774;8.942;2022-07-23T02:03:37;8.32;;;4.63;;
69030;SDS011;56083;48.774;8.942;2022-07-23T02:06:03;5.65;;;4.07;;
69030;SDS011;56083;48.774;8.942;2022-07-23T02:08:29;7.60;;;4.40;;
69030;SDS011;56083;48.774;8.942;2022-07-23T02:10:54;6.10;;;4.50;;
69030;SDS011;56083;48.774;8.942;2022-07-23T02:13:20;7.28;;;4.60;;
69030;SDS011;56083;48.774;8.942;2022-07-23T02:15:46;10.13;;;4.38;;
69030;SDS011;56083;48.774;8.942;2022-07-23T02:18:12;10.82;;;4.32;;
69030;SDS011;56083;48.774;8.942;2022-07-23T02:20:38;5.68;;;4.60;;
69030;SDS011;56083;48.774;8.942;2022-07-23T02:23:05;5.32;;;4.32;;
69030;SDS011;56083;48.774;8.942;2022-07-23T02:25:31;7.35;;;4.55;;
69030;SDS011;56083;48.774;8.942;2022-07-23T02:27:57;5.15;;;4.30;;
69030;SDS011;56083;48.774;8.942;2022-07-23T02:30:23;7.97;;;4.65;;
69030;SDS011;56083;48.774;8.942;2022-07-23T02:32:49;5.10;;;3.90;;
69030;SDS011;56083;48.774;8.942;2022-07-23T02:35:14;7.90;;;4.28;;
69030;SDS011;56083;48.774;8.942;2022-07-23T02:37:40;6.05;;;4.53;;
69030;SDS011;56083;48.774;8.942;2022-07-23T02:40:06;10.15;;;4.65;;
69030;SDS011;56083;48.774;8.942;2022-07-23T02:42:32;12.43;;;4.45;;
69030;SDS011;56083;48.774;8.942;2022-07-23T02:44:57;6.13;;;4.75;;
69030;SDS011;56083;48.774;8.942;2022-07-23T02:47:23;6.78;;;4.80;;
69030;SDS011;56083;48.774;8.942;2022-07-23T02:49:48;10.63;;;4.85;;
69030;SDS011;56083;48.774;8.942;2022-07-23T02:52:14;7.85;;;4.40;;
69030;SDS011;56083;48.774;8.942;2022-07-23T02:54:40;8.07;;;4.45;;
69030;SDS011;56083;48.774;8.942;2022-07-23T02:57:05;5.47;;;4.10;;
69030;SDS011;56083;48.774;8.942;2022-07-23T02:59:31;7.90;;;4.15;;
69030;SDS011;56083;48.774;8.942;2022-07-23T03:01:57;5.80;;;4.30;;
69030;SDS011;56083;48.774;8.942;2022-07-23T03:04:22;7.20;;;4.72;;
69030;SDS011;56083;48.774;8.942;2022-07-23T03:06:48;7.10;;;4.20;;
69030;SDS011;56083;48.774;8.942;2022-07-23T03:09:14;7.13;;;4.85;;
69030;SDS011;56083;48.774;8.942;2022-07-23T03:11:39;9.48;;;4.20;;
69030;SDS011;56083;48.774;8.942;2022-07-23T03:14:05;9.98;;;4.47;;
69030;SDS011;56083;48.774;8.942;2022-07-23T03:16:32;5.93;;;4.20;;
69030;SDS011;56083;48.774;8.942;2022-07-23T03:18:58;6.40;;;4.20;;
69030;SDS011;56083;48.774;8.942;2022-07-23T03:21:23;7.28;;;4.68;;
69030;SDS011;56083;48.774;8.942;2022-07-23T03:23:49;8.27;;;4.88;;
69030;SDS011;56083;48.774;8.942;2022-07-23T03:26:15;6.60;;;4.88;;
69030;SDS011;56083;48.774;8.942;2022-07-23T03:28:40;6.65;;;4.63;;
69030;SDS011;56083;48.774;8.942;2022-07-23T03:31:06;6.25;;;4.57;;
69030;SDS011;56083;48.774;8.942;2022-07-23T03:33:31;6.50;;;4.70;;
69030;SDS011;56083;48.774;8.942;2022-07-23T03:35:57;9.68;;;4.70;;
69030;SDS011;56083;48.774;8.942;2022-07-23T03:38:23;10.27;;;5.22;;
69030;SDS011;56083;48.774;8.942;2022-07-23T03:40:48;11.70;;;4.80;;
69030;SDS011;56083;48.774;8.942;2022-07-23T03:43:14;9.23;;;4.78;;
69030;SDS011;56083;48.774;8.942;2022-07-23T03:45:39;6.85;;;5.03;;
69030;SDS011;56083;48.774;8.942;2022-07-23T03:48:05;6.22;;;4.45;;
69030;SDS011;56083;48.774;8.942;2022-07-23T03:50:31;6.75;;;4.80;;
69030;SDS011;56083;48.774;8.942;2022-07-23T03:52:56;6.43;;;4.47;;
69030;SDS011;56083;48.774;8.942;2022-07-23T03:55:22;7.75;;;5.07;;
69030;SDS011;56083;48.774;8.942;2022-07-23T03:57:47;6.93;;;4.57;;
69030;SDS011;56083;48.774;8.942;2022-07-23T04:00:13;5.53;;;4.28;;
69030;SDS011;56083;48.774;8.942;2022-07-23T04:02:40;7.95;;;5.10;;
69030;SDS011;56083;48.774;8.942;2022-07-23T04:05:06;6.57;;;4.65;;
69030;SDS011;56083;48.774;8.942;2022-07-23T04:07:32;6.85;;;4.72;;
69030;SDS011;56083;48.774;8.942;2022-07-23T04:09:57;8.10;;;4.57;;
69030;SDS011;56083;48.774;8.942;2022-07-23T04:12:24;8.68;;;4.55;;
69030;SDS011;56083;48.774;8.942;2022-07-23T04:14:50;7.97;;;4.45;;
69030;SDS011;56083;48.774;8.942;2022-07-23T04:17:16;6.78;;;4.93;;
69030;SDS011;56083;48.774;8.942;2022-07-23T04:19:41;8.88;;;5.03;;
69030;SDS011;56083;48.774;8.942;2022-07-23T04:22:09;6.25;;;4.85;;
69030;SDS011;56083;48.774;8.942;2022-07-23T04:24:35;9.25;;;5.03;;
69030;SDS011;56083;48.774;8.942;2022-07-23T04:27:02;6.85;;;5.22;;
69030;SDS011;56083;48.774;8.942;2022-07-23T04:29:28;7.57;;;5.43;;
69030;SDS011;56083;48.774;8.942;2022-07-23T04:31:53;9.20;;;5.30;;
69030;SDS011;56083;48.774;8.942;2022-07-23T04:34:19;10.70;;;6.07;;
69030;SDS011;56083;48.774;8.942;2022-07-23T04:36:45;8.55;;;5.40;;
69030;SDS011;56083;48.774;8.942;2022-07-23T04:39:11;7.50;;;5.38;;
69030;SDS011;56083;48.774;8.942;2022-07-23T04:41:37;7.20;;;5.10;;
69030;SDS011;56083;48.774;8.942;2022-07-23T04:44:02;7.13;;;4.85;;
69030;SDS011;56083;48.774;8.942;2022-07-23T04:46:28;10.82;;;5.10;;
69030;SDS011;56083;48.774;8.942;2022-07-23T04:48:54;5.63;;;4.82;;
69030;SDS011;56083;48.774;8.942;2022-07-23T04:51:20;8.40;;;4.97;;
69030;SDS011;56083;48.774;8.942;2022-07-23T04:53:45;5.43;;;4.50;;
69030;SDS011;56083;48.774;8.942;2022-07-23T04:56:11;9.48;;;4.50;;
69030;SDS011;56083;48.774;8.942;2022-07-23T04:58:37;9.82;;;5.45;;
69030;SDS011;56083;48.774;8.942;2022-07-23T05:01:03;8.40;;;4.55;;
69030;SDS011;56083;48.774;8.942;2022-07-23T05:03:29;6.43;;;5.18;;
69030;SDS011;56083;48.774;8.942;2022-07-23T05:05:54;6.00;;;4.60;;
69030;SDS011;56083;48.774;8.942;2022-07-23T05:08:20;7.78;;;4.38;;
69030;SDS011;56083;48.774;8.942;2022-07-23T05:10:46;7.95;;;4.50;;
69030;SDS011;56083;48.774;8.942;2022-07-23T05:13:14;7.45;;;4.90;;
69030;SDS011;56083;48.774;8.942;2022-07-23T05:15:40;8.10;;;4.90;;
69030;SDS011;56083;48.774;8.942;2022-07-23T05:18:06;8.13;;;4.78;;
69030;SDS011;56083;48.774;8.942;2022-07-23T05:20:32;7.80;;;4.65;;
69030;SDS011;56083;48.774;8.942;2022-07-23T05:22:58;10.65;;;5.20;;
69030;SDS011;56083;48.774;8.942;2022-07-23T05:25:23;10.55;;;4.80;;
69030;SDS011;56083;48.774;8.942;2022-07-23T05:27:49;5.38;;;4.20;;
69030;SDS011;56083;48.774;8.942;2022-07-23T05:30:15;7.47;;;4.72;;
69030;SDS011;56083;48.774;8.942;2022-07-23T05:32:40;7.50;;;4.63;;
69030;SDS011;56083;48.774;8.942;2022-07-23T05:35:06;7.53;;;4.18;;
69030;SDS011;56083;48.774;8.942;2022-07-23T05:37:32;6.70;;;4.40;;
69030;SDS011;56083;48.774;8.942;2022-07-23T05:40:05;6.95;;;4.00;;
69030;SDS011;56083;48.774;8.942;2022-07-23T05:42:33;6.63;;;4.55;;
69030;SDS011;56083;48.774;8.942;2022-07-23T05:45:02;6.93;;;4.40;;
69030;SDS011;56083;48.774;8.942;2022-07-23T05:47:38;7.07;;;4.53;;
69030;SDS011;56083;48.774;8.942;2022-07-23T05:50:13;6.88;;;4.90;;
69030;SDS011;56083;48.774;8.942;2022-07-23T05:52:40;5.78;;;4.53;;
69030;SDS011;56083;48.774;8.942;2022-07-23T05:55:07;7.32;;;4.75;;
69030;SDS011;56083;48.774;8.942;2022-07-23T05:57:33;8.52;;;5.05;;
69030;SDS011;56083;48.774;8.942;2022-07-23T05:59:59;7.65;;;4.70;;
69030;SDS011;56083;48.774;8.942;2022-07-23T06:02:25;7.40;;;4.63;;
69030;SDS011;56083;48.774;8.942;2022-07-23T06:04:51;8.05;;;4.70;;
69030;SDS011;56083;48.774;8.942;2022-07-23T06:07:16;7.88;;;4.65;;
69030;SDS011;56083;48.774;8.942;2022-07-23T06:09:42;8.18;;;4.85;;
69030;SDS011;56083;48.774;8.942;2022-07-23T06:12:08;6.20;;;4.63;;
69030;SDS011;56083;48.774;8.942;2022-07-23T06:14:33;12.45;;;4.70;;
69030;SDS011;56083;48.774;8.942;2022-07-23T06:16:59;6.57;;;4.75;;
69030;SDS011;56083;48.774;8.942;2022-07-23T06:19:25;6.30;;;4.80;;
69030;SDS011;56083;48.774;8.942;2022-07-23T06:21:51;7.38;;;4.47;;
69030;SDS011;56083;48.774;8.942;2022-07-23T06:24:17;7.53;;;4.65;;
69030;SDS011;56083;48.774;8.942;2022-07-23T06:26:42;5.22;;;4.20;;
69030;SDS011;56083;48.774;8.942;2022-07-23T06:29:08;5.85;;;4.40;;
69030;SDS011;56083;48.774;8.942;2022-07-23T06:31:34;6.70;;;4.57;;
69030;SDS011;56083;48.774;8.942;2022-07-23T06:34:00;5.97;;;4.43;;
69030;SDS011;56083;48.774;8.942;2022-07-23T06:36:25;6.35;;;3.97;;
69030;SDS011;56083;48.774;8.942;2022-07-23T06:38:51;6.97;;;4.47;;
69030;SDS011;56083;48.774;8.942;2022-07-23T06:41:17;6.70;;;4.13;;
69030;SDS011;56083;48.774;8.942;2022-07-23T06:43:43;5.60;;;4.40;;
69030;SDS011;56083;48.774;8.942;2022-07-23T06:46:08;7.53;;;4.40;;
69030;SDS011;56083;48.774;8.942;2022-07-23T06:48:34;7.03;;;4.20;;
69030;SDS011;56083;48.774;8.942;2022-07-23T08:31:37;5.22;;;3.55;;
69030;SDS011;56083;48.774;8.942;2022-07-23T08:34:05;7.35;;;4.13;;
69030;SDS011;56083;48.774;8.942;2022-07-23T08:36:30;7.43;;;3.40;;
69030;SDS011;56083;48.774;8.942;2022-07-23T08:38:57;6.88;;;3.80;;
69030;SDS011;56083;48.774;8.942;2022-07-23T08:41:24;5.78;;;4.03;;
69030;SDS011;56083;48.774;8.942;2022-07-23T08:43:50;4.65;;;3.42;;
69030;SDS011;56083;48.774;8.942;2022-07-23T08:46:16;5.30;;;3.70;;
69030;SDS011;56083;48.774;8.942;2022-07-23T08:48:43;6.93;;;3.60;;
69030;SDS011;56083;48.774;8.942;2022-07-23T08:51:13;4.93;;;3.50;;
69030;SDS011;56083;48.774;8.942;2022-07-23T08:53:39;5.85;;;3.70;;
69030;SDS011;56083;48.774;8.942;2022-07-23T08:56:06;3.70;;;3.15;;
69030;SDS011;56083;48.774;8.942;2022-07-23T08:58:32;4.05;;;3.22;;
69030;SDS011;56083;48.774;8.942;2022-07-23T09:00:59;5.32;;;3.70;;
69030;SDS011;56083;48.774;8.942;2022-07-23T09:03:27;5.97;;;3.22;;
69030;SDS011;56083;48.774;8.942;2022-07-23T09:05:55;4.18;;;3.35;;
69030;SDS011;56083;48.774;8.942;2022-07-23T09:08:26;5.28;;;3.35;;
69030;SDS011;56083;48.774;8.942;2022-07-23T09:11:01;3.95;;;3.40;;
69030;SDS011;56083;48.774;8.942;2022-07-23T09:13:41;5.47;;;3.45;;
69030;SDS011;56083;48.774;8.942;2022-07-23T09:18:50;4.65;;;3.38;;
69030;SDS011;56083;48.774;8.942;2022-07-23T09:21:19;4.15;;;3.63;;
69030;SDS011;56083;48.774;8.942;2022-07-23T09:23:47;8.50;;;3.47;;
69030;SDS011;56083;48.774;8.942;2022-07-23T09:26:22;3.92;;;3.40;;
69030;SDS011;56083;48.774;8.942;2022-07-23T09:28:50;4.93;;;3.30;;
69030;SDS011;56083;48.774;8.942;2022-07-23T09:31:17;4.10;;;3.10;;
69030;SDS011;56083;48.774;8.942;2022-07-23T09:33:43;7.97;;;3.50;;
69030;SDS011;56083;48.774;8.942;2022-07-23T09:36:08;4.65;;;3.55;;
69030;SDS011;56083;48.774;8.942;2022-07-23T09:38:34;5.25;;;3.53;;
69030;SDS011;56083;48.774;8.942;2022-07-23T09:41:13;3.72;;;3.13;;
69030;SDS011;56083;48.774;8.942;2022-07-23T09:43:39;5.13;;;3.60;;
69030;SDS011;56083;48.774;8.942;2022-07-23T09:46:18;3.30;;;2.92;;
69030;SDS011;56083;48.774;8.942;2022-07-23T09:48:49;5.10;;;3.15;;
69030;SDS011;56083;48.774;8.942;2022-07-23T09:51:18;5.63;;;3.20;;
69030;SDS011;56083;48.774;8.942;2022-07-23T09:54:03;6.82;;;3.03;;
69030;SDS011;56083;48.774;8.942;2022-07-23T09:56:29;5.00;;;3.30;;
69030;SDS011;56083;48.774;8.942;2022-07-23T09:58:58;6.03;;;3.13;;
69030;SDS011;56083;48.774;8.942;2022-07-23T10:01:30;4.68;;;3.08;;
69030;SDS011;56083;48.774;8.942;2022-07-23T10:03:56;3.67;;;3.20;;
69030;SDS011;56083;48.774;8.942;2022-07-23T10:06:23;3.90;;;3.20;;
69030;SDS011;56083;48.774;8.942;2022-07-23T10:08:49;3.65;;;3.30;;
69030;SDS011;56083;48.774;8.942;2022-07-23T10:11:17;5.38;;;3.20;;
69030;SDS011;56083;48.774;8.942;2022-07-23T10:13:43;4.93;;;3.40;;
69030;SDS011;56083;48.774;8.942;2022-07-23T10:16:09;5.05;;;3.22;;
69030;SDS011;56083;48.774;8.942;2022-07-23T10:18:35;4.88;;;3.58;;
69030;SDS011;56083;48.774;8.942;2022-07-23T10:21:02;4.53;;;3.45;;
69030;SDS011;56083;48.774;8.942;2022-07-23T10:23:42;5.07;;;3.50;;
69030;SDS011;56083;48.774;8.942;2022-07-23T10:26:24;3.53;;;3.22;;
69030;SDS011;56083;48.774;8.942;2022-07-23T10:29:09;4.13;;;3.40;;
69030;SDS011;56083;48.774;8.942;2022-07-23T10:34:19;6.03;;;3.45;;
69030;SDS011;56083;48.774;8.942;2022-07-23T10:36:51;4.72;;;3.38;;
69030;SDS011;56083;48.774;8.942;2022-07-23T10:39:25;3.92;;;3.35;;
69030;SDS011;56083;48.774;8.942;2022-07-23T10:41:51;3.95;;;3.42;;
69030;SDS011;56083;48.774;8.942;2022-07-23T10:44:37;3.85;;;3.05;;
69030;SDS011;56083;48.774;8.942;2022-07-23T10:47:05;5.03;;;3.28;;
69030;SDS011;56083;48.774;8.942;2022-07-23T10:49:34;7.78;;;3.38;;
69030;SDS011;56083;48.774;8.942;2022-07-23T10:54:55;4.13;;;3.50;;
69030;SDS011;56083;48.774;8.942;2022-07-23T10:57:48;6.78;;;3.60;;
69030;SDS011;56083;48.774;8.942;2022-07-23T11:00:15;5.57;;;3.55;;
69030;SDS011;56083;48.774;8.942;2022-07-23T11:02:45;4.25;;;3.17;;
69030;SDS011;56083;48.774;8.942;2022-07-23T11:05:13;5.47;;;3.67;;
69030;SDS011;56083;48.774;8.942;2022-07-23T11:23:58;5.78;;;3.25;;
69030;SDS011;56083;48.774;8.942;2022-07-23T11:37:01;5.35;;;3.20;;
69030;SDS011;56083;48.774;8.942;2022-07-23T11:39:28;4.43;;;3.22;;
69030;SDS011;56083;48.774;8.942;2022-07-23T11:41:56;4.38;;;3.10;;
69030;SDS011;56083;48.774;8.942;2022-07-23T11:44:32;3.75;;;3.40;;
69030;SDS011;56083;48.774;8.942;2022-07-23T11:47:06;4.43;;;3.40;;
69030;SDS011;56083;48.774;8.942;2022-07-23T11:49:34;6.50;;;3.57;;
69030;SDS011;56083;48.774;8.942;2022-07-23T11:52:04;5.20;;;3.50;;
69030;SDS011;56083;48.774;8.942;2022-07-23T11:54:32;4.68;;;3.35;;
69030;SDS011;56083;48.774;8.942;2022-07-23T11:56:59;4.85;;;3.30;;
69030;SDS011;56083;48.774;8.942;2022-07-23T11:59:30;4.82;;;3.70;;
69030;SDS011;56083;48.774;8.942;2022-07-23T12:02:07;3.55;;;3.22;;
69030;SDS011;56083;48.774;8.942;2022-07-23T12:04:43;5.30;;;3.13;;
69030;SDS011;56083;48.774;8.942;2022-07-23T12:09:52;4.95;;;3.50;;
69030;SDS011;56083;48.774;8.942;2022-07-23T12:12:18;8.57;;;3.67;;
69030;SDS011;56083;48.774;8.942;2022-07-23T12:14:54;7.13;;;3.65;;
69030;SDS011;56083;48.774;8.942;2022-07-23T12:17:20;5.93;;;3.75;;
69030;SDS011;56083;48.774;8.942;2022-07-23T12:19:52;4.70;;;3.50;;
69030;SDS011;56083;48.774;8.942;2022-07-23T12:22:19;4.93;;;4.13;;
69030;SDS011;56083;48.774;8.942;2022-07-23T12:25:03;5.25;;;3.85;;
69030;SDS011;56083;48.774;8.942;2022-07-23T12:27:31;8.68;;;4.10;;
69030;SDS011;56083;48.774;8.942;2022-07-23T12:29:57;7.20;;;3.90;;
69030;SDS011;56083;48.774;8.942;2022-07-23T12:32:24;5.20;;;4.03;;
69030;SDS011;56083;48.774;8.942;2022-07-23T12:35:02;10.65;;;3.90;;
69030;SDS011;56083;48.774;8.942;2022-07-23T12:37:33;5.82;;;3.70;;
69030;SDS011;56083;48.774;8.942;2022-07-23T12:45:21;7.43;;;3.85;;
69030;SDS011;56083;48.774;8.942;2022-07-23T12:47:58;6.35;;;3.95;;
69030;SDS011;56083;48.774;8.942;2022-07-23T12:50:42;4.90;;;3.83;;
69030;SDS011;56083;48.774;8.942;2022-07-23T12:53:14;7.40;;;3.78;;
69030;SDS011;56083;48.774;8.942;2022-07-23T12:55:42;6.03;;;3.95;;
69030;SDS011;56083;48.774;8.942;2022-07-23T12:58:10;5.30;;;4.07;;
69030;SDS011;56083;48.774;8.942;2022-07-23T13:03:22;6.35;;;4.05;;
69030;SDS011;56083;48.774;8.942;2022-07-23T13:05:53;6.20;;;4.15;;
69030;SDS011;56083;48.774;8.942;2022-07-23T13:08:20;10.00;;;4.05;;
69030;SDS011;56083;48.774;8.942;2022-07-23T13:10:46;5.63;;;4.22;;
69030;SDS011;56083;48.774;8.942;2022-07-23T13:13:14;5.70;;;4.05;;
69030;SDS011;56083;48.774;8.942;2022-07-23T13:15:41;6.38;;;4.38;;
69030;SDS011;56083;48.774;8.942;2022-07-23T13:18:07;7.72;;;4.15;;
69030;SDS011;56083;48.774;8.942;2022-07-23T13:20:33;6.90;;;3.90;;
69030;SDS011;56083;48.774;8.942;2022-07-23T13:22:59;6.78;;;4.00;;
69030;SDS011;56083;48.774;8.942;2022-07-23T13:25:26;4.35;;;3.92;;
69030;SDS011;56083;48.774;8.942;2022-07-23T13:27:51;5.18;;;3.50;;
69030;SDS011;56083;48.774;8.942;2022-07-23T13:30:17;4.88;;;3.88;;
69030;SDS011;56083;48.774;8.942;2022-07-23T13:32:43;4.18;;;3.65;;
69030;SDS011;56083;48.774;8.942;2022-07-23T13:35:09;6.97;;;3.50;;
69030;SDS011;56083;48.774;8.942;2022-07-23T13:37:35;6.32;;;3.67;;
69030;SDS011;56083;48.774;8.942;2022-07-23T13:40:00;6.90;;;3.70;;
69030;SDS011;56083;48.774;8.942;2022-07-23T13:42:26;6.63;;;3.33;;
69030;SDS011;56083;48.774;8.942;2022-07-23T13:44:52;3.75;;;3.40;;
69030;SDS011;56083;48.774;8.942;2022-07-23T13:47:18;5.88;;;4.10;;
69030;SDS011;56083;48.774;8.942;2022-07-23T13:49:44;5.75;;;3.65;;
69030;SDS011;56083;48.774;8.942;2022-07-23T13:52:09;5.97;;;3.55;;
69030;SDS011;56083;48.774;8.942;2022-07-23T13:54:35;5.10;;;3.80;;
69030;SDS011;56083;48.774;8.942;2022-07-23T13:57:01;4.60;;;3.60;;
69030;SDS011;56083;48.774;8.942;2022-07-23T13:59:26;6.95;;;3.80;;
69030;SDS011;56083;48.774;8.942;2022-07-23T14:01:52;9.65;;;3.72;;
69030;SDS011;56083;48.774;8.942;2022-07-23T14:04:19;7.85;;;3.80;;
69030;SDS011;56083;48.774;8.942;2022-07-23T14:06:45;5.68;;;3.80;;
69030;SDS011;56083;48.774;8.942;2022-07-23T14:09:11;4.07;;;3.67;;
69030;SDS011;56083;48.774;8.942;2022-07-23T14:11:36;5.45;;;3.90;;
69030;SDS011;56083;48.774;8.942;2022-07-23T14:14:03;7.07;;;4.00;;
69030;SDS011;56083;48.774;8.942;2022-07-23T14:16:29;7.72;;;3.70;;
69030;SDS011;56083;48.774;8.942;2022-07-23T14:18:55;6.32;;;3.63;;
69030;SDS011;56083;48.774;8.942;2022-07-23T14:21:21;7.47;;;3.95;;
69030;SDS011;56083;48.774;8.942;2022-07-23T14:23:47;8.38;;;3.80;;
69030;SDS011;56083;48.774;8.942;2022-07-23T14:26:12;7.65;;;3.95;;
69030;SDS011;56083;48.774;8.942;2022-07-23T14:28:38;7.00;;;4.10;;
69030;SDS011;56083;48.774;8.942;2022-07-23T14:31:04;4.40;;;3.67;;
69030;SDS011;56083;48.774;8.942;2022-07-23T14:33:29;5.05;;;3.80;;
69030;SDS011;56083;48.774;8.942;2022-07-23T14:35:55;9.15;;;3.90;;
69030;SDS011;56083;48.774;8.942;2022-07-23T14:38:21;5.72;;;4.07;;
69030;SDS011;56083;48.774;8.942;2022-07-23T14:40:46;5.65;;;3.72;;
69030;SDS011;56083;48.774;8.942;2022-07-23T14:43:12;7.07;;;3.80;;
69030;SDS011;56083;48.774;8.942;2022-07-23T14:45:38;5.40;;;3.70;;
69030;SDS011;56083;48.774;8.942;2022-07-23T14:48:04;5.88;;;3.92;;
69030;SDS011;56083;48.774;8.942;2022-07-23T14:50:42;5.45;;;3.88;;
69030;SDS011;56083;48.774;8.942;2022-07-23T14:53:08;6.45;;;4.05;;
69030;SDS011;56083;48.774;8.942;2022-07-23T14:55:34;7.25;;;4.43;;
69030;SDS011;56083;48.774;8.942;2022-07-23T14:57:59;5.05;;;4.03;;
69030;SDS011;56083;48.774;8.942;2022-07-23T15:00:25;10.02;;;4.55;;
69030;SDS011;56083;48.774;8.942;2022-07-23T15:02:52;5.85;;;3.95;;
69030;SDS011;56083;48.774;8.942;2022-07-23T15:05:18;6.18;;;3.85;;
69030;SDS011;56083;48.774;8.942;2022-07-23T15:07:44;7.53;;;4.20;;
69030;SDS011;56083;48.774;8.942;2022-07-23T15:10:10;6.30;;;4.00;;
69030;SDS011;56083;48.774;8.942;2022-07-23T15:12:36;4.90;;;3.85;;
69030;SDS011;56083;48.774;8.942;2022-07-23T15:15:02;5.90;;;3.53;;
69030;SDS011;56083;48.774;8.942;2022-07-23T15:17:29;10.13;;;4.43;;
69030;SDS011;56083;48.774;8.942;2022-07-23T15:19:54;6.88;;;4.28;;
69030;SDS011;56083;48.774;8.942;2022-07-23T15:22:20;6.75;;;4.28;;
69030;SDS011;56083;48.774;8.942;2022-07-23T15:24:46;5.90;;;4.32;;
69030;SDS011;56083;48.774;8.942;2022-07-23T15:27:12;5.90;;;4.10;;
69030;SDS011;56083;48.774;8.942;2022-07-23T15:29:37;5.95;;;3.88;;
69030;SDS011;56083;48.774;8.942;2022-07-23T15:32:03;9.15;;;4.45;;
69030;SDS011;56083;48.774;8.942;2022-07-23T15:34:29;5.10;;;3.80;;
69030;SDS011;56083;48.774;8.942;2022-07-23T15:36:56;5.07;;;4.10;;
69030;SDS011;56083;48.774;8.942;2022-07-23T15:39:25;8.30;;;4.32;;
69030;SDS011;56083;48.774;8.942;2022-07-23T15:41:50;7.43;;;4.07;;
69030;SDS011;56083;48.774;8.942;2022-07-23T15:44:16;8.48;;;4.45;;
69030;SDS011;56083;48.774;8.942;2022-07-23T15:46:42;7.60;;;4.55;;
69030;SDS011;56083;48.774;8.942;2022-07-23T15:49:07;5.70;;;4.32;;
69030;SDS011;56083;48.774;8.942;2022-07-23T15:51:33;7.03;;;4.38;;
69030;SDS011;56083;48.774;8.942;2022-07-23T15:53:59;8.15;;;4.43;;
69030;SDS011;56083;48.774;8.942;2022-07-23T15:56:24;7.32;;;4.88;;
69030;SDS011;56083;48.774;8.942;2022-07-23T15:58:50;6.72;;;4.70;;
69030;SDS011;56083;48.774;8.942;2022-07-23T16:01:16;7.70;;;4.30;;
69030;SDS011;56083;48.774;8.942;2022-07-23T16:03:41;7.40;;;4.50;;
69030;SDS011;56083;48.774;8.942;2022-07-23T16:06:07;6.25;;;4.38;;
69030;SDS011;56083;48.774;8.942;2022-07-23T16:08:33;6.30;;;4.45;;
69030;SDS011;56083;48.774;8.942;2022-07-23T16:10:59;6.22;;;4.88;;
69030;SDS011;56083;48.774;8.942;2022-07-23T16:13:25;9.50;;;5.03;;
69030;SDS011;56083;48.774;8.942;2022-07-23T16:15:51;7.13;;;4.70;;
69030;SDS011;56083;48.774;8.942;2022-07-23T16:18:19;6.47;;;4.65;;
69030;SDS011;56083;48.774;8.942;2022-07-23T16:20:50;7.88;;;4.78;;
69030;SDS011;56083;48.774;8.942;2022-07-23T16:23:17;7.88;;;4.78;;
69030;SDS011;56083;48.774;8.942;2022-07-23T16:25:43;5.65;;;4.82;;
69030;SDS011;56083;48.774;8.942;2022-07-23T16:28:09;6.28;;;4.88;;
69030;SDS011;56083;48.774;8.942;2022-07-23T16:30:34;5.88;;;4.70;;
69030;SDS011;56083;48.774;8.942;2022-07-23T16:33:00;5.63;;;4.55;;
69030;SDS011;56083;48.774;8.942;2022-07-23T16:35:26;6.57;;;5.03;;
69030;SDS011;56083;48.774;8.942;2022-07-23T16:37:53;6.70;;;4.50;;
69030;SDS011;56083;48.774;8.942;2022-07-23T16:40:19;6.85;;;4.43;;
69030;SDS011;56083;48.774;8.942;2022-07-23T16:42:45;10.48;;;4.93;;
69030;SDS011;56083;48.774;8.942;2022-07-23T16:45:10;9.20;;;5.00;;
69030;SDS011;56083;48.774;8.942;2022-07-23T16:47:37;7.55;;;5.32;;
69030;SDS011;56083;48.774;8.942;2022-07-23T16:50:03;8.88;;;5.32;;
69030;SDS011;56083;48.774;8.942;2022-07-23T16:52:30;7.20;;;5.38;;
69030;SDS011;56083;48.774;8.942;2022-07-23T16:54:56;11.57;;;5.50;;
69030;SDS011;56083;48.774;8.942;2022-07-23T16:57:22;9.32;;;5.32;;
69030;SDS011;56083;48.774;8.942;2022-07-23T16:59:47;9.05;;;5.40;;
69030;SDS011;56083;48.774;8.942;2022-07-23T17:02:13;6.55;;;5.22;;
69030;SDS011;56083;48.774;8.942;2022-07-23T17:04:40;8.30;;;5.20;;
69030;SDS011;56083;48.774;8.942;2022-07-23T17:07:06;8.68;;;5.40;;
69030;SDS011;56083;48.774;8.942;2022-07-23T17:09:33;12.93;;;5.50;;
69030;SDS011;56083;48.774;8.942;2022-07-23T17:11:59;7.05;;;5.00;;
69030;SDS011;56083;48.774;8.942;2022-07-23T17:14:26;7.45;;;4.90;;